Les articles d'ExpertMaritime.pro


Votre expert maritime indépendant Xavier Braive est disponible sur la zone de Meschers-sur-Gironde - Port de Meschers - 17132

(Charente-Maritime - Poitou-Charentes)


Voir plan
Situation :

Le Port de Meschers, situé sur la rive droite de la Gironde près de son embouchure, est abrité par tous temps.

Il comprend :

- Un avant-chenal de 250 m de long, large de 8 m qui fait un angle de 8° W avec le Nord vrai, creusé à la cote + 0,50 m ; le vieux havre d’échouage ou « chenal » équipé de quai, cales en 1861.

- Un bassin d’échouage créé 1985 de 121 places sur pontons flottants, creuse à la cote + 1 m.

- Un bassin à flot mis en service en 1990, de 121 places à l’origine, 116 aujourd’hui (on y a placé des bateaux plus grands que prévu), en arrière d’une porte-écluse, T.E. 2,50 m ; le seuil de l’écluse est à la cote + 2 m ; les portes ouvrent quand la mer atteint le niveau + 3,50 m, avec 1,50 m d’eau sur le seuil (les cotes se réfèrent au niveau 0 des cartes marines).
Lat. 45° 33?, 3 N – Long. 00° 56?, 6 W ; carte SHOM 7029.
Distances : LE VERDON : 3,5 M. – ROYAN : 5 M. – PAUILLAC : 23 M. – BORDEAUX : 48 M.

- Une zone de mouillage, ouverte d’Avril à Septembre, de 22 corps morts, sur les vases à l’est du chenal d’accès.

Pratique :

Ville de Meschers : Location des anneaux.
Capitainerie, Tél.: 05.46.02.56.89 – VHF canal 9 –
n° de Fax 05 46 02 34 77 - GSM 06 15 11 23 10
Monsieur KERDUDOU est le capitaine assermenté du port.

SAUVETAGE :
CROSS ETEL, Tél.: O2 .97.553.535.
De juin à septembre Poste de Secours – Plage des Nonnes,
Tél. : 05.46.02.72.92, situé à 1 mille au nord du Port.
Météo affichée à la Capitainerie.
Météo locale sur la zone Port de Meschers
Heure (UTC) Dir.Vent Vit.Vent (nds) Force (Bft) T°min T°max P (mb) Hum.Rel.
03/08/2021 - 15:00:00 au 03/08/2021 - 18:00:00 234° (SW) 9 3 18°C 19°C 1015 80 %
03/08/2021 - 18:00:00 au 03/08/2021 - 21:00:00 196° (SSW) 7 3 16°C 18°C 1015 85 %
03/08/2021 - 21:00:00 au 04/08/2021 - 00:00:00 191° (S) 10 3 17°C 17°C 1014 91 %
04/08/2021 - 00:00:00 au 04/08/2021 - 03:00:00 228° (SW) 15 4 19°C 19°C 1011 89 %
04/08/2021 - 03:00:00 au 04/08/2021 - 06:00:00 246° (WSW) 15 4 19°C 19°C 1011 86 %
04/08/2021 - 06:00:00 au 04/08/2021 - 09:00:00 253° (WSW) 18 5 20°C 20°C 1012 74 %
04/08/2021 - 09:00:00 au 04/08/2021 - 12:00:00 261° (W) 17 5 20°C 20°C 1012 79 %
04/08/2021 - 12:00:00 au 04/08/2021 - 15:00:00 287° (WNW) 18 5 21°C 21°C 1013 78 %
04/08/2021 - 15:00:00 au 04/08/2021 - 18:00:00 298° (WNW) 16 4 19°C 19°C 1015 78 %
04/08/2021 - 18:00:00 au 04/08/2021 - 21:00:00 305° (NW) 10 3 19°C 19°C 1016 73 %
04/08/2021 - 21:00:00 au 05/08/2021 - 00:00:00 267° (W) 8 3 18°C 18°C 1016 73 %
05/08/2021 - 00:00:00 au 05/08/2021 - 03:00:00 247° (WSW) 6 2 17°C 17°C 1015 84 %
05/08/2021 - 03:00:00 au 05/08/2021 - 06:00:00 231° (SW) 7 3 18°C 18°C 1015 83 %
05/08/2021 - 06:00:00 au 05/08/2021 - 09:00:00 232° (SW) 11 4 21°C 21°C 1014 68 %
05/08/2021 - 09:00:00 au 05/08/2021 - 12:00:00 236° (SW) 14 4 22°C 22°C 1013 63 %
05/08/2021 - 12:00:00 au 05/08/2021 - 15:00:00 237° (WSW) 15 4 22°C 22°C 1012 67 %
05/08/2021 - 15:00:00 au 05/08/2021 - 18:00:00 247° (WSW) 14 4 20°C 20°C 1011 83 %
05/08/2021 - 18:00:00 au 05/08/2021 - 21:00:00 258° (WSW) 14 4 19°C 19°C 1011 80 %
05/08/2021 - 21:00:00 au 06/08/2021 - 00:00:00 277° (W) 14 4 18°C 18°C 1012 81 %
06/08/2021 - 00:00:00 au 06/08/2021 - 03:00:00 271° (W) 12 4 18°C 18°C 1012 78 %
06/08/2021 - 03:00:00 au 06/08/2021 - 06:00:00 269° (W) 10 3 18°C 18°C 1012 77 %
06/08/2021 - 06:00:00 au 06/08/2021 - 09:00:00 267° (W) 10 3 20°C 20°C 1012 65 %
06/08/2021 - 09:00:00 au 06/08/2021 - 12:00:00 259° (W) 9 3 21°C 21°C 1012 60 %
06/08/2021 - 12:00:00 au 06/08/2021 - 15:00:00 268° (W) 10 3 21°C 21°C 1011 60 %
06/08/2021 - 15:00:00 au 06/08/2021 - 18:00:00 266° (W) 6 2 20°C 20°C 1009 62 %
06/08/2021 - 18:00:00 au 06/08/2021 - 21:00:00 236° (SW) 6 2 18°C 18°C 1009 69 %
06/08/2021 - 21:00:00 au 07/08/2021 - 00:00:00 234° (SW) 8 3 19°C 19°C 1009 70 %
07/08/2021 - 00:00:00 au 07/08/2021 - 03:00:00 246° (WSW) 10 3 18°C 18°C 1008 74 %
07/08/2021 - 03:00:00 au 07/08/2021 - 06:00:00 239° (WSW) 11 4 19°C 19°C 1008 75 %
07/08/2021 - 06:00:00 au 07/08/2021 - 09:00:00 255° (WSW) 14 4 20°C 20°C 1009 73 %
07/08/2021 - 09:00:00 au 07/08/2021 - 12:00:00 256° (WSW) 15 4 21°C 21°C 1010 65 %
07/08/2021 - 12:00:00 au 07/08/2021 - 15:00:00 264° (W) 15 4 21°C 21°C 1011 62 %
07/08/2021 - 15:00:00 au 07/08/2021 - 18:00:00 273° (W) 12 4 20°C 20°C 1012 68 %
07/08/2021 - 18:00:00 au 07/08/2021 - 21:00:00 277° (W) 7 3 17°C 17°C 1014 78 %
07/08/2021 - 21:00:00 au 08/08/2021 - 00:00:00 269° (W) 7 3 17°C 17°C 1015 83 %
08/08/2021 - 00:00:00 au 08/08/2021 - 03:00:00 281° (W) 5 2 16°C 16°C 1015 81 %
08/08/2021 - 03:00:00 au 08/08/2021 - 06:00:00 274° (W) 2 1 17°C 17°C 1016 78 %
08/08/2021 - 06:00:00 au 08/08/2021 - 09:00:00 292° (WNW) 4 2 20°C 20°C 1017 66 %
08/08/2021 - 09:00:00 au 08/08/2021 - 12:00:00 288° (WNW) 9 3 21°C 21°C 1018 57 %
08/08/2021 - 12:00:00 au 08/08/2021 - 15:00:00 296° (WNW) 11 4 21°C 21°C 1019 56 %
openweathermap
Ces informations sont partiellement extraites de Wikipedia, et des sites pertinents pour cette zone. Compilation d'informations de Xavier Braive.
Xavier Braive, Expert Maritime Plaisance se déplace sur Port de Meschers, Meschers-sur-Gironde, 17132, Charente-Maritime

Welcome to Cross-Channel yachtmen !

we can deliver survey reports in english, in case of dammage or prior to buy / sell a boat in France (pre-purchase survey), and more specifically on the Atlantic coast.

Uw onafhankelijk jachtexpert

verkrijkbaar op de Atlantische kust, bij aankoop of reparatie van jachten (metaal, polyester of composiet). Rapporten in Nederlands

BRAIVE, Xavier
Xavier Braive
Expert Maritime
Nouvelle Aquitaine
France
06 71 50 20 17